sensor_id;sensor_type;location;lat;lon;timestamp;P1;durP1;ratioP1;P2;durP2;ratioP2
79751;SDS011;69234;47.446;21.636;2024-01-30T00:00:19;52.30;;;49.87;;
79751;SDS011;69234;47.446;21.636;2024-01-30T00:00:51;52.07;;;50.27;;
79751;SDS011;69234;47.446;21.636;2024-01-30T00:01:22;51.67;;;50.07;;
79751;SDS011;69234;47.446;21.636;2024-01-30T00:01:53;51.83;;;49.57;;
79751;SDS011;69234;47.446;21.636;2024-01-30T00:02:24;52.43;;;49.93;;
79751;SDS011;69234;47.446;21.636;2024-01-30T00:02:55;52.07;;;50.07;;
79751;SDS011;69234;47.446;21.636;2024-01-30T00:03:26;51.23;;;49.83;;
79751;SDS011;69234;47.446;21.636;2024-01-30T00:03:57;54.03;;;51.97;;
79751;SDS011;69234;47.446;21.636;2024-01-30T00:04:28;53.07;;;50.63;;
79751;SDS011;69234;47.446;21.636;2024-01-30T00:04:59;53.17;;;50.67;;
79751;SDS011;69234;47.446;21.636;2024-01-30T00:05:30;53.27;;;51.03;;
79751;SDS011;69234;47.446;21.636;2024-01-30T00:06:02;53.53;;;51.47;;
79751;SDS011;69234;47.446;21.636;2024-01-30T00:06:34;52.83;;;50.80;;
79751;SDS011;69234;47.446;21.636;2024-01-30T00:07:04;53.50;;;51.27;;
79751;SDS011;69234;47.446;21.636;2024-01-30T00:07:35;54.40;;;51.93;;
79751;SDS011;69234;47.446;21.636;2024-01-30T00:08:06;54.73;;;52.50;;
79751;SDS011;69234;47.446;21.636;2024-01-30T00:08:37;53.33;;;51.33;;
79751;SDS011;69234;47.446;21.636;2024-01-30T00:09:08;54.80;;;52.67;;
79751;SDS011;69234;47.446;21.636;2024-01-30T00:09:40;53.73;;;51.90;;
79751;SDS011;69234;47.446;21.636;2024-01-30T00:10:12;52.83;;;50.77;;
79751;SDS011;69234;47.446;21.636;2024-01-30T00:10:43;52.57;;;50.33;;
79751;SDS011;69234;47.446;21.636;2024-01-30T00:11:14;54.00;;;51.53;;
79751;SDS011;69234;47.446;21.636;2024-01-30T00:11:46;54.03;;;51.57;;
79751;SDS011;69234;47.446;21.636;2024-01-30T00:12:17;53.73;;;51.50;;
79751;SDS011;69234;47.446;21.636;2024-01-30T00:12:48;53.43;;;51.53;;
79751;SDS011;69234;47.446;21.636;2024-01-30T00:13:18;53.37;;;51.37;;
79751;SDS011;69234;47.446;21.636;2024-01-30T00:13:50;54.63;;;52.13;;
79751;SDS011;69234;47.446;21.636;2024-01-30T00:14:21;54.33;;;52.30;;
79751;SDS011;69234;47.446;21.636;2024-01-30T00:14:52;54.43;;;52.30;;
79751;SDS011;69234;47.446;21.636;2024-01-30T00:15:23;52.73;;;50.97;;
79751;SDS011;69234;47.446;21.636;2024-01-30T00:15:54;55.07;;;53.10;;
79751;SDS011;69234;47.446;21.636;2024-01-30T00:16:25;54.63;;;52.40;;
79751;SDS011;69234;47.446;21.636;2024-01-30T00:16:56;55.83;;;53.87;;
79751;SDS011;69234;47.446;21.636;2024-01-30T00:17:27;55.60;;;53.43;;
79751;SDS011;69234;47.446;21.636;2024-01-30T00:17:58;53.60;;;51.67;;
79751;SDS011;69234;47.446;21.636;2024-01-30T00:18:29;53.57;;;51.40;;
79751;SDS011;69234;47.446;21.636;2024-01-30T00:19:00;53.83;;;51.57;;
79751;SDS011;69234;47.446;21.636;2024-01-30T00:19:32;53.97;;;51.63;;
79751;SDS011;69234;47.446;21.636;2024-01-30T00:20:03;54.47;;;52.27;;
79751;SDS011;69234;47.446;21.636;2024-01-30T00:20:35;55.03;;;52.73;;
79751;SDS011;69234;47.446;21.636;2024-01-30T00:21:06;54.27;;;52.20;;
79751;SDS011;69234;47.446;21.636;2024-01-30T00:21:37;51.90;;;50.30;;
79751;SDS011;69234;47.446;21.636;2024-01-30T00:22:08;50.80;;;49.40;;
79751;SDS011;69234;47.446;21.636;2024-01-30T00:22:39;51.10;;;49.27;;
79751;SDS011;69234;47.446;21.636;2024-01-30T00:23:10;52.00;;;49.63;;
79751;SDS011;69234;47.446;21.636;2024-01-30T00:23:41;52.37;;;49.97;;
79751;SDS011;69234;47.446;21.636;2024-01-30T00:24:12;50.80;;;48.93;;
79751;SDS011;69234;47.446;21.636;2024-01-30T00:24:43;50.73;;;49.13;;
79751;SDS011;69234;47.446;21.636;2024-01-30T00:25:14;51.83;;;49.97;;
79751;SDS011;69234;47.446;21.636;2024-01-30T00:25:44;50.77;;;49.07;;
79751;SDS011;69234;47.446;21.636;2024-01-30T00:26:15;51.00;;;49.37;;
79751;SDS011;69234;47.446;21.636;2024-01-30T00:26:46;50.30;;;48.73;;
79751;SDS011;69234;47.446;21.636;2024-01-30T00:27:17;51.50;;;49.83;;
79751;SDS011;69234;47.446;21.636;2024-01-30T00:27:48;50.53;;;48.93;;
79751;SDS011;69234;47.446;21.636;2024-01-30T00:28:19;48.70;;;47.20;;
79751;SDS011;69234;47.446;21.636;2024-01-30T00:28:50;49.50;;;48.03;;
79751;SDS011;69234;47.446;21.636;2024-01-30T00:29:21;49.77;;;48.20;;
79751;SDS011;69234;47.446;21.636;2024-01-30T00:29:53;50.67;;;48.77;;
79751;SDS011;69234;47.446;21.636;2024-01-30T00:30:23;51.13;;;49.33;;
79751;SDS011;69234;47.446;21.636;2024-01-30T00:30:55;52.57;;;50.53;;
79751;SDS011;69234;47.446;21.636;2024-01-30T00:31:25;52.03;;;49.60;;
79751;SDS011;69234;47.446;21.636;2024-01-30T00:31:56;51.57;;;49.43;;
79751;SDS011;69234;47.446;21.636;2024-01-30T00:32:27;51.77;;;49.77;;
79751;SDS011;69234;47.446;21.636;2024-01-30T00:32:58;52.70;;;50.47;;
79751;SDS011;69234;47.446;21.636;2024-01-30T00:33:29;54.27;;;51.53;;
79751;SDS011;69234;47.446;21.636;2024-01-30T00:34:00;54.33;;;52.13;;
79751;SDS011;69234;47.446;21.636;2024-01-30T00:34:31;52.83;;;51.03;;
79751;SDS011;69234;47.446;21.636;2024-01-30T00:35:02;52.67;;;50.63;;
79751;SDS011;69234;47.446;21.636;2024-01-30T00:35:33;55.37;;;52.90;;
79751;SDS011;69234;47.446;21.636;2024-01-30T00:36:08;56.77;;;54.47;;
79751;SDS011;69234;47.446;21.636;2024-01-30T00:36:40;54.20;;;52.07;;
79751;SDS011;69234;47.446;21.636;2024-01-30T00:37:10;54.63;;;52.50;;
79751;SDS011;69234;47.446;21.636;2024-01-30T00:37:41;56.50;;;54.40;;
79751;SDS011;69234;47.446;21.636;2024-01-30T00:38:12;59.30;;;56.63;;
79751;SDS011;69234;47.446;21.636;2024-01-30T00:38:43;59.27;;;56.53;;
79751;SDS011;69234;47.446;21.636;2024-01-30T00:39:14;58.33;;;56.03;;
79751;SDS011;69234;47.446;21.636;2024-01-30T00:39:46;56.90;;;54.53;;
79751;SDS011;69234;47.446;21.636;2024-01-30T00:40:17;59.60;;;56.53;;
79751;SDS011;69234;47.446;21.636;2024-01-30T00:40:48;60.27;;;57.03;;
79751;SDS011;69234;47.446;21.636;2024-01-30T00:41:19;59.40;;;56.33;;
79751;SDS011;69234;47.446;21.636;2024-01-30T00:41:50;57.57;;;55.03;;
79751;SDS011;69234;47.446;21.636;2024-01-30T00:42:20;57.60;;;54.87;;
79751;SDS011;69234;47.446;21.636;2024-01-30T00:42:53;57.67;;;54.70;;
79751;SDS011;69234;47.446;21.636;2024-01-30T00:43:24;58.97;;;55.97;;
79751;SDS011;69234;47.446;21.636;2024-01-30T00:43:55;57.03;;;54.77;;
79751;SDS011;69234;47.446;21.636;2024-01-30T00:44:26;56.97;;;54.50;;
79751;SDS011;69234;47.446;21.636;2024-01-30T00:44:57;56.83;;;54.43;;
79751;SDS011;69234;47.446;21.636;2024-01-30T00:45:28;55.73;;;52.90;;
79751;SDS011;69234;47.446;21.636;2024-01-30T00:45:59;56.57;;;54.23;;
79751;SDS011;69234;47.446;21.636;2024-01-30T00:46:30;56.40;;;54.10;;
79751;SDS011;69234;47.446;21.636;2024-01-30T00:47:01;55.63;;;53.07;;
79751;SDS011;69234;47.446;21.636;2024-01-30T00:47:33;54.73;;;52.10;;
79751;SDS011;69234;47.446;21.636;2024-01-30T00:48:04;55.70;;;53.20;;
79751;SDS011;69234;47.446;21.636;2024-01-30T00:48:35;55.40;;;53.20;;
79751;SDS011;69234;47.446;21.636;2024-01-30T00:49:06;53.47;;;51.40;;
79751;SDS011;69234;47.446;21.636;2024-01-30T00:49:37;52.50;;;50.47;;
79751;SDS011;69234;47.446;21.636;2024-01-30T00:50:08;53.77;;;51.87;;
79751;SDS011;69234;47.446;21.636;2024-01-30T00:50:39;55.13;;;53.13;;
79751;SDS011;69234;47.446;21.636;2024-01-30T00:51:10;53.83;;;51.90;;
79751;SDS011;69234;47.446;21.636;2024-01-30T00:51:41;53.10;;;51.33;;
79751;SDS011;69234;47.446;21.636;2024-01-30T00:52:12;51.97;;;50.00;;
79751;SDS011;69234;47.446;21.636;2024-01-30T00:52:43;52.00;;;49.97;;
79751;SDS011;69234;47.446;21.636;2024-01-30T00:53:15;52.03;;;49.93;;
79751;SDS011;69234;47.446;21.636;2024-01-30T00:53:46;52.53;;;50.60;;
79751;SDS011;69234;47.446;21.636;2024-01-30T00:54:17;53.07;;;50.93;;
79751;SDS011;69234;47.446;21.636;2024-01-30T00:54:48;55.13;;;52.70;;
79751;SDS011;69234;47.446;21.636;2024-01-30T00:55:19;55.97;;;53.63;;
79751;SDS011;69234;47.446;21.636;2024-01-30T00:55:50;53.80;;;51.77;;
79751;SDS011;69234;47.446;21.636;2024-01-30T00:56:21;54.23;;;51.50;;
79751;SDS011;69234;47.446;21.636;2024-01-30T00:56:52;55.17;;;52.30;;
79751;SDS011;69234;47.446;21.636;2024-01-30T00:57:23;55.37;;;52.37;;
79751;SDS011;69234;47.446;21.636;2024-01-30T00:57:54;54.83;;;52.27;;
79751;SDS011;69234;47.446;21.636;2024-01-30T00:58:25;54.83;;;52.53;;
79751;SDS011;69234;47.446;21.636;2024-01-30T00:58:55;55.33;;;52.97;;
79751;SDS011;69234;47.446;21.636;2024-01-30T00:59:26;56.93;;;54.27;;
79751;SDS011;69234;47.446;21.636;2024-01-30T00:59:57;56.07;;;53.53;;
79751;SDS011;69234;47.446;21.636;2024-01-30T01:00:28;59.03;;;56.83;;
79751;SDS011;69234;47.446;21.636;2024-01-30T01:00:59;59.70;;;57.13;;
79751;SDS011;69234;47.446;21.636;2024-01-30T01:01:30;62.50;;;59.57;;
79751;SDS011;69234;47.446;21.636;2024-01-30T01:02:01;64.73;;;61.27;;
79751;SDS011;69234;47.446;21.636;2024-01-30T01:02:32;62.30;;;59.00;;
79751;SDS011;69234;47.446;21.636;2024-01-30T01:03:03;61.73;;;59.03;;
79751;SDS011;69234;47.446;21.636;2024-01-30T01:03:34;62.13;;;59.13;;
79751;SDS011;69234;47.446;21.636;2024-01-30T01:04:05;61.90;;;59.00;;
79751;SDS011;69234;47.446;21.636;2024-01-30T01:04:37;61.93;;;59.17;;
79751;SDS011;69234;47.446;21.636;2024-01-30T01:05:08;62.50;;;59.90;;
79751;SDS011;69234;47.446;21.636;2024-01-30T01:05:39;63.17;;;60.63;;
79751;SDS011;69234;47.446;21.636;2024-01-30T01:06:10;64.90;;;60.93;;
79751;SDS011;69234;47.446;21.636;2024-01-30T01:06:41;64.13;;;59.97;;
79751;SDS011;69234;47.446;21.636;2024-01-30T01:07:14;63.23;;;59.63;;
79751;SDS011;69234;47.446;21.636;2024-01-30T01:07:45;62.03;;;59.00;;
79751;SDS011;69234;47.446;21.636;2024-01-30T01:08:17;59.00;;;56.13;;
79751;SDS011;69234;47.446;21.636;2024-01-30T01:08:51;58.47;;;55.57;;
79751;SDS011;69234;47.446;21.636;2024-01-30T01:09:22;56.30;;;54.07;;
79751;SDS011;69234;47.446;21.636;2024-01-30T01:09:53;55.63;;;53.43;;
79751;SDS011;69234;47.446;21.636;2024-01-30T01:10:24;56.30;;;53.90;;
79751;SDS011;69234;47.446;21.636;2024-01-30T01:10:55;53.33;;;51.30;;
79751;SDS011;69234;47.446;21.636;2024-01-30T01:11:26;52.13;;;50.20;;
79751;SDS011;69234;47.446;21.636;2024-01-30T01:11:56;52.07;;;50.23;;
79751;SDS011;69234;47.446;21.636;2024-01-30T01:12:27;52.63;;;50.87;;
79751;SDS011;69234;47.446;21.636;2024-01-30T01:12:58;53.70;;;51.73;;
79751;SDS011;69234;47.446;21.636;2024-01-30T01:13:29;53.23;;;50.63;;
79751;SDS011;69234;47.446;21.636;2024-01-30T01:14:00;53.33;;;50.77;;
79751;SDS011;69234;47.446;21.636;2024-01-30T01:14:31;50.87;;;48.57;;
79751;SDS011;69234;47.446;21.636;2024-01-30T01:15:02;50.93;;;48.70;;
79751;SDS011;69234;47.446;21.636;2024-01-30T01:15:33;52.03;;;49.83;;
79751;SDS011;69234;47.446;21.636;2024-01-30T01:16:05;52.57;;;50.50;;
79751;SDS011;69234;47.446;21.636;2024-01-30T01:16:36;52.30;;;50.80;;
79751;SDS011;69234;47.446;21.636;2024-01-30T01:17:07;54.77;;;52.77;;
79751;SDS011;69234;47.446;21.636;2024-01-30T01:17:38;55.40;;;53.30;;
79751;SDS011;69234;47.446;21.636;2024-01-30T01:18:10;55.53;;;53.27;;
79751;SDS011;69234;47.446;21.636;2024-01-30T01:18:42;57.20;;;54.30;;
79751;SDS011;69234;47.446;21.636;2024-01-30T01:19:13;56.40;;;53.90;;
79751;SDS011;69234;47.446;21.636;2024-01-30T01:19:44;58.10;;;55.73;;
79751;SDS011;69234;47.446;21.636;2024-01-30T01:20:16;57.33;;;55.07;;
79751;SDS011;69234;47.446;21.636;2024-01-30T01:20:47;57.00;;;54.80;;
79751;SDS011;69234;47.446;21.636;2024-01-30T01:21:17;58.50;;;56.50;;
79751;SDS011;69234;47.446;21.636;2024-01-30T01:21:48;58.63;;;56.23;;
79751;SDS011;69234;47.446;21.636;2024-01-30T01:22:19;58.13;;;55.37;;
79751;SDS011;69234;47.446;21.636;2024-01-30T01:22:50;59.03;;;56.13;;
79751;SDS011;69234;47.446;21.636;2024-01-30T01:23:22;58.17;;;55.63;;
79751;SDS011;69234;47.446;21.636;2024-01-30T01:23:53;58.47;;;55.97;;
79751;SDS011;69234;47.446;21.636;2024-01-30T01:24:24;59.13;;;56.43;;
79751;SDS011;69234;47.446;21.636;2024-01-30T01:24:55;58.87;;;55.97;;
79751;SDS011;69234;47.446;21.636;2024-01-30T01:25:26;58.60;;;55.57;;
79751;SDS011;69234;47.446;21.636;2024-01-30T01:25:57;55.60;;;52.83;;
79751;SDS011;69234;47.446;21.636;2024-01-30T01:26:29;55.10;;;52.53;;
79751;SDS011;69234;47.446;21.636;2024-01-30T01:27:00;56.17;;;53.63;;
79751;SDS011;69234;47.446;21.636;2024-01-30T01:27:31;53.43;;;51.23;;
79751;SDS011;69234;47.446;21.636;2024-01-30T01:28:04;54.77;;;52.43;;
79751;SDS011;69234;47.446;21.636;2024-01-30T01:28:35;55.80;;;53.23;;
79751;SDS011;69234;47.446;21.636;2024-01-30T01:29:06;54.40;;;52.00;;
79751;SDS011;69234;47.446;21.636;2024-01-30T01:29:42;53.43;;;51.50;;
79751;SDS011;69234;47.446;21.636;2024-01-30T01:30:13;51.33;;;49.17;;
79751;SDS011;69234;47.446;21.636;2024-01-30T01:30:49;53.27;;;50.83;;
79751;SDS011;69234;47.446;21.636;2024-01-30T01:31:20;52.57;;;50.40;;
79751;SDS011;69234;47.446;21.636;2024-01-30T01:31:55;52.63;;;50.50;;
79751;SDS011;69234;47.446;21.636;2024-01-30T01:32:26;53.13;;;51.00;;
79751;SDS011;69234;47.446;21.636;2024-01-30T01:32:57;53.63;;;51.40;;
79751;SDS011;69234;47.446;21.636;2024-01-30T01:33:31;51.40;;;49.07;;
79751;SDS011;69234;47.446;21.636;2024-01-30T01:34:03;49.97;;;47.83;;
79751;SDS011;69234;47.446;21.636;2024-01-30T01:34:34;52.70;;;50.27;;
79751;SDS011;69234;47.446;21.636;2024-01-30T01:35:05;50.87;;;48.93;;
79751;SDS011;69234;47.446;21.636;2024-01-30T01:35:36;51.03;;;49.43;;
79751;SDS011;69234;47.446;21.636;2024-01-30T01:36:07;51.60;;;49.80;;
79751;SDS011;69234;47.446;21.636;2024-01-30T01:36:38;53.20;;;51.27;;
79751;SDS011;69234;47.446;21.636;2024-01-30T01:37:10;51.90;;;49.63;;
79751;SDS011;69234;47.446;21.636;2024-01-30T01:37:41;52.43;;;50.20;;
79751;SDS011;69234;47.446;21.636;2024-01-30T01:38:12;51.67;;;49.70;;
79751;SDS011;69234;47.446;21.636;2024-01-30T01:38:43;51.83;;;49.97;;
79751;SDS011;69234;47.446;21.636;2024-01-30T01:39:13;53.10;;;51.33;;
79751;SDS011;69234;47.446;21.636;2024-01-30T01:39:45;53.30;;;51.27;;
79751;SDS011;69234;47.446;21.636;2024-01-30T01:40:16;53.10;;;50.73;;
79751;SDS011;69234;47.446;21.636;2024-01-30T01:40:46;52.40;;;50.13;;
79751;SDS011;69234;47.446;21.636;2024-01-30T01:41:17;51.83;;;49.87;;
79751;SDS011;69234;47.446;21.636;2024-01-30T01:41:48;51.60;;;49.47;;
79751;SDS011;69234;47.446;21.636;2024-01-30T01:42:19;52.43;;;50.27;;
79751;SDS011;69234;47.446;21.636;2024-01-30T01:42:50;52.73;;;50.63;;
79751;SDS011;69234;47.446;21.636;2024-01-30T01:43:24;51.47;;;49.97;;
79751;SDS011;69234;47.446;21.636;2024-01-30T01:43:55;51.27;;;49.60;;
79751;SDS011;69234;47.446;21.636;2024-01-30T01:44:26;51.53;;;49.93;;
79751;SDS011;69234;47.446;21.636;2024-01-30T01:44:58;53.17;;;51.13;;
79751;SDS011;69234;47.446;21.636;2024-01-30T01:45:28;53.20;;;50.70;;
79751;SDS011;69234;47.446;21.636;2024-01-30T01:45:59;51.93;;;49.47;;
79751;SDS011;69234;47.446;21.636;2024-01-30T01:46:32;52.83;;;50.43;;
79751;SDS011;69234;47.446;21.636;2024-01-30T01:47:05;53.33;;;51.10;;
79751;SDS011;69234;47.446;21.636;2024-01-30T01:47:36;53.27;;;51.17;;
79751;SDS011;69234;47.446;21.636;2024-01-30T01:48:08;53.23;;;51.33;;
79751;SDS011;69234;47.446;21.636;2024-01-30T01:48:39;52.63;;;50.67;;
79751;SDS011;69234;47.446;21.636;2024-01-30T01:49:11;53.07;;;51.10;;
79751;SDS011;69234;47.446;21.636;2024-01-30T01:49:42;51.77;;;49.93;;
79751;SDS011;69234;47.446;21.636;2024-01-30T01:50:13;53.53;;;51.23;;
79751;SDS011;69234;47.446;21.636;2024-01-30T01:50:49;55.03;;;52.77;;
79751;SDS011;69234;47.446;21.636;2024-01-30T01:51:20;54.90;;;52.80;;
79751;SDS011;69234;47.446;21.636;2024-01-30T01:51:53;55.13;;;53.20;;
79751;SDS011;69234;47.446;21.636;2024-01-30T01:52:29;54.33;;;52.37;;
79751;SDS011;69234;47.446;21.636;2024-01-30T01:53:00;54.03;;;51.90;;
79751;SDS011;69234;47.446;21.636;2024-01-30T01:53:33;56.20;;;53.70;;
79751;SDS011;69234;47.446;21.636;2024-01-30T01:54:04;55.80;;;53.67;;
79751;SDS011;69234;47.446;21.636;2024-01-30T01:54:36;56.23;;;54.13;;
79751;SDS011;69234;47.446;21.636;2024-01-30T01:55:07;53.77;;;51.77;;
79751;SDS011;69234;47.446;21.636;2024-01-30T01:55:42;53.87;;;51.93;;
79751;SDS011;69234;47.446;21.636;2024-01-30T01:56:13;55.47;;;53.63;;
79751;SDS011;69234;47.446;21.636;2024-01-30T01:56:45;55.07;;;53.23;;
79751;SDS011;69234;47.446;21.636;2024-01-30T01:57:16;54.37;;;52.27;;
79751;SDS011;69234;47.446;21.636;2024-01-30T01:57:47;55.83;;;53.87;;
79751;SDS011;69234;47.446;21.636;2024-01-30T01:58:18;56.97;;;54.77;;
79751;SDS011;69234;47.446;21.636;2024-01-30T01:58:53;54.33;;;52.30;;
79751;SDS011;69234;47.446;21.636;2024-01-30T01:59:25;57.23;;;55.00;;
79751;SDS011;69234;47.446;21.636;2024-01-30T01:59:57;57.63;;;55.80;;
79751;SDS011;69234;47.446;21.636;2024-01-30T02:00:29;56.77;;;54.83;;
79751;SDS011;69234;47.446;21.636;2024-01-30T02:01:01;58.87;;;56.93;;
79751;SDS011;69234;47.446;21.636;2024-01-30T02:01:34;56.93;;;55.13;;
79751;SDS011;69234;47.446;21.636;2024-01-30T02:02:07;57.37;;;55.57;;
79751;SDS011;69234;47.446;21.636;2024-01-30T02:02:43;55.77;;;53.97;;
79751;SDS011;69234;47.446;21.636;2024-01-30T02:03:15;56.63;;;54.77;;
79751;SDS011;69234;47.446;21.636;2024-01-30T02:03:51;56.07;;;54.10;;
79751;SDS011;69234;47.446;21.636;2024-01-30T02:04:22;56.97;;;55.07;;
79751;SDS011;69234;47.446;21.636;2024-01-30T02:04:53;57.50;;;55.47;;
79751;SDS011;69234;47.446;21.636;2024-01-30T02:05:24;57.63;;;55.53;;
79751;SDS011;69234;47.446;21.636;2024-01-30T02:05:56;57.73;;;55.73;;
79751;SDS011;69234;47.446;21.636;2024-01-30T02:06:27;58.37;;;56.17;;
79751;SDS011;69234;47.446;21.636;2024-01-30T02:06:59;56.63;;;54.80;;
79751;SDS011;69234;47.446;21.636;2024-01-30T02:07:30;58.77;;;56.93;;
79751;SDS011;69234;47.446;21.636;2024-01-30T02:08:01;57.60;;;55.90;;
79751;SDS011;69234;47.446;21.636;2024-01-30T02:08:33;56.93;;;55.23;;
79751;SDS011;69234;47.446;21.636;2024-01-30T02:09:05;56.83;;;54.87;;
79751;SDS011;69234;47.446;21.636;2024-01-30T02:09:35;58.60;;;56.40;;
79751;SDS011;69234;47.446;21.636;2024-01-30T02:10:07;57.93;;;55.80;;
79751;SDS011;69234;47.446;21.636;2024-01-30T02:10:40;57.93;;;55.87;;
79751;SDS011;69234;47.446;21.636;2024-01-30T02:11:11;58.40;;;56.07;;
79751;SDS011;69234;47.446;21.636;2024-01-30T02:11:42;59.17;;;56.27;;
79751;SDS011;69234;47.446;21.636;2024-01-30T02:12:13;60.27;;;56.80;;
79751;SDS011;69234;47.446;21.636;2024-01-30T02:12:44;59.07;;;56.27;;
79751;SDS011;69234;47.446;21.636;2024-01-30T02:13:15;59.40;;;56.80;;
79751;SDS011;69234;47.446;21.636;2024-01-30T02:13:46;59.23;;;57.13;;
79751;SDS011;69234;47.446;21.636;2024-01-30T02:14:17;56.70;;;54.73;;
79751;SDS011;69234;47.446;21.636;2024-01-30T02:14:48;59.60;;;57.13;;
79751;SDS011;69234;47.446;21.636;2024-01-30T02:15:20;59.43;;;57.27;;
79751;SDS011;69234;47.446;21.636;2024-01-30T02:15:51;57.97;;;56.07;;
79751;SDS011;69234;47.446;21.636;2024-01-30T02:16:22;58.53;;;56.67;;
79751;SDS011;69234;47.446;21.636;2024-01-30T02:16:53;58.40;;;56.47;;
79751;SDS011;69234;47.446;21.636;2024-01-30T02:17:23;59.93;;;57.87;;
79751;SDS011;69234;47.446;21.636;2024-01-30T02:17:54;60.83;;;58.20;;
79751;SDS011;69234;47.446;21.636;2024-01-30T02:18:25;59.20;;;56.67;;
79751;SDS011;69234;47.446;21.636;2024-01-30T02:18:56;58.27;;;55.90;;
79751;SDS011;69234;47.446;21.636;2024-01-30T02:19:27;57.80;;;55.77;;
79751;SDS011;69234;47.446;21.636;2024-01-30T02:19:58;57.57;;;55.73;;
79751;SDS011;69234;47.446;21.636;2024-01-30T02:20:30;57.10;;;55.33;;
79751;SDS011;69234;47.446;21.636;2024-01-30T02:21:04;56.73;;;54.83;;
79751;SDS011;69234;47.446;21.636;2024-01-30T02:21:36;59.40;;;57.27;;
79751;SDS011;69234;47.446;21.636;2024-01-30T02:22:08;55.37;;;53.83;;
79751;SDS011;69234;47.446;21.636;2024-01-30T02:22:40;58.37;;;56.47;;
79751;SDS011;69234;47.446;21.636;2024-01-30T02:23:13;60.17;;;57.77;;
79751;SDS011;69234;47.446;21.636;2024-01-30T02:23:46;57.97;;;55.93;;
79751;SDS011;69234;47.446;21.636;2024-01-30T02:24:18;60.17;;;58.00;;
79751;SDS011;69234;47.446;21.636;2024-01-30T02:24:49;60.00;;;57.80;;
79751;SDS011;69234;47.446;21.636;2024-01-30T02:25:20;58.47;;;56.70;;
79751;SDS011;69234;47.446;21.636;2024-01-30T02:26:00;57.77;;;55.90;;
79751;SDS011;69234;47.446;21.636;2024-01-30T02:26:31;60.07;;;57.53;;
79751;SDS011;69234;47.446;21.636;2024-01-30T02:27:02;61.90;;;59.20;;
79751;SDS011;69234;47.446;21.636;2024-01-30T02:27:33;61.17;;;59.00;;
79751;SDS011;69234;47.446;21.636;2024-01-30T02:28:04;59.97;;;57.97;;
79751;SDS011;69234;47.446;21.636;2024-01-30T02:28:35;59.30;;;57.27;;
79751;SDS011;69234;47.446;21.636;2024-01-30T02:29:06;60.20;;;57.70;;
79751;SDS011;69234;47.446;21.636;2024-01-30T02:29:37;60.23;;;57.83;;
79751;SDS011;69234;47.446;21.636;2024-01-30T02:30:08;62.37;;;59.97;;
79751;SDS011;69234;47.446;21.636;2024-01-30T02:30:40;64.17;;;61.67;;
79751;SDS011;69234;47.446;21.636;2024-01-30T02:31:13;63.03;;;60.27;;
79751;SDS011;69234;47.446;21.636;2024-01-30T02:31:44;62.43;;;60.23;;
79751;SDS011;69234;47.446;21.636;2024-01-30T02:32:16;63.23;;;61.30;;
79751;SDS011;69234;47.446;21.636;2024-01-30T02:32:47;63.87;;;61.43;;
79751;SDS011;69234;47.446;21.636;2024-01-30T02:33:18;62.90;;;60.73;;
79751;SDS011;69234;47.446;21.636;2024-01-30T02:33:49;63.47;;;61.23;;
79751;SDS011;69234;47.446;21.636;2024-01-30T02:34:20;63.50;;;60.70;;
79751;SDS011;69234;47.446;21.636;2024-01-30T02:34:51;65.43;;;62.03;;
79751;SDS011;69234;47.446;21.636;2024-01-30T02:35:22;65.57;;;62.50;;
79751;SDS011;69234;47.446;21.636;2024-01-30T02:35:53;63.80;;;60.87;;
79751;SDS011;69234;47.446;21.636;2024-01-30T02:36:24;62.77;;;60.50;;
79751;SDS011;69234;47.446;21.636;2024-01-30T02:36:54;66.10;;;63.57;;
79751;SDS011;69234;47.446;21.636;2024-01-30T02:37:25;64.37;;;62.17;;
79751;SDS011;69234;47.446;21.636;2024-01-30T02:37:56;65.07;;;62.83;;
79751;SDS011;69234;47.446;21.636;2024-01-30T02:38:28;63.77;;;61.23;;
79751;SDS011;69234;47.446;21.636;2024-01-30T02:38:59;63.67;;;61.33;;
79751;SDS011;69234;47.446;21.636;2024-01-30T02:39:30;65.10;;;62.77;;
79751;SDS011;69234;47.446;21.636;2024-01-30T02:40:01;63.80;;;61.40;;
79751;SDS011;69234;47.446;21.636;2024-01-30T02:40:32;60.93;;;58.87;;
79751;SDS011;69234;47.446;21.636;2024-01-30T02:41:03;60.40;;;58.17;;
79751;SDS011;69234;47.446;21.636;2024-01-30T02:41:34;60.53;;;58.80;;
79751;SDS011;69234;47.446;21.636;2024-01-30T02:42:06;60.17;;;57.90;;
79751;SDS011;69234;47.446;21.636;2024-01-30T02:42:37;58.63;;;56.53;;
79751;SDS011;69234;47.446;21.636;2024-01-30T02:43:08;57.17;;;55.30;;
79751;SDS011;69234;47.446;21.636;2024-01-30T02:43:39;57.33;;;55.23;;
79751;SDS011;69234;47.446;21.636;2024-01-30T02:44:09;60.73;;;58.43;;
79751;SDS011;69234;47.446;21.636;2024-01-30T02:44:40;59.13;;;57.10;;
79751;SDS011;69234;47.446;21.636;2024-01-30T02:45:11;60.83;;;58.37;;
79751;SDS011;69234;47.446;21.636;2024-01-30T02:45:43;58.00;;;55.70;;
79751;SDS011;69234;47.446;21.636;2024-01-30T02:46:14;58.07;;;55.90;;
79751;SDS011;69234;47.446;21.636;2024-01-30T02:46:45;57.30;;;55.47;;
79751;SDS011;69234;47.446;21.636;2024-01-30T02:47:16;57.40;;;55.40;;
79751;SDS011;69234;47.446;21.636;2024-01-30T02:47:46;58.00;;;55.67;;
79751;SDS011;69234;47.446;21.636;2024-01-30T02:48:17;57.93;;;55.87;;
79751;SDS011;69234;47.446;21.636;2024-01-30T02:48:48;57.17;;;55.03;;
79751;SDS011;69234;47.446;21.636;2024-01-30T02:49:19;60.57;;;58.37;;
79751;SDS011;69234;47.446;21.636;2024-01-30T02:49:51;58.80;;;56.67;;
79751;SDS011;69234;47.446;21.636;2024-01-30T02:50:22;56.80;;;54.97;;
79751;SDS011;69234;47.446;21.636;2024-01-30T02:50:53;57.57;;;56.00;;
79751;SDS011;69234;47.446;21.636;2024-01-30T02:51:23;58.30;;;56.57;;
79751;SDS011;69234;47.446;21.636;2024-01-30T02:51:54;57.10;;;55.67;;
79751;SDS011;69234;47.446;21.636;2024-01-30T02:52:27;56.00;;;54.53;;
79751;SDS011;69234;47.446;21.636;2024-01-30T02:52:57;59.57;;;57.40;;
79751;SDS011;69234;47.446;21.636;2024-01-30T02:53:28;59.50;;;57.43;;
79751;SDS011;69234;47.446;21.636;2024-01-30T02:53:59;58.60;;;56.80;;
79751;SDS011;69234;47.446;21.636;2024-01-30T02:54:30;60.67;;;58.87;;
79751;SDS011;69234;47.446;21.636;2024-01-30T02:55:01;61.77;;;59.83;;
79751;SDS011;69234;47.446;21.636;2024-01-30T02:55:33;61.37;;;59.50;;
79751;SDS011;69234;47.446;21.636;2024-01-30T02:56:04;61.47;;;59.53;;
79751;SDS011;69234;47.446;21.636;2024-01-30T02:56:36;63.63;;;61.33;;
79751;SDS011;69234;47.446;21.636;2024-01-30T02:57:06;64.00;;;61.63;;
79751;SDS011;69234;47.446;21.636;2024-01-30T02:57:38;60.47;;;58.57;;
79751;SDS011;69234;47.446;21.636;2024-01-30T02:58:09;59.00;;;57.43;;
79751;SDS011;69234;47.446;21.636;2024-01-30T02:58:40;60.17;;;58.33;;
79751;SDS011;69234;47.446;21.636;2024-01-30T02:59:11;60.13;;;58.03;;
79751;SDS011;69234;47.446;21.636;2024-01-30T02:59:42;61.03;;;58.90;;
79751;SDS011;69234;47.446;21.636;2024-01-30T03:00:14;63.70;;;61.47;;
79751;SDS011;69234;47.446;21.636;2024-01-30T03:00:45;61.73;;;59.87;;